Yellowstone National Park, WY (82190)

01:53 PM MDT die 21o October, anno 2014 (GMT -0600)
Yellowstone | Change Station
CLOSE
Current Station
Airport
Location: West Yellowstone,
Elevation: 2025 m
Nearby Weather Stations

Elev 2025 m 44.69 °N, 111.12 °W | Updated 18 minutes ago

Plerumque Nubila
Plerumque Nubila
3 °C
Feels Like -1 °C
N
17
Ventus Variabilis Ventus from Magis Auster quam Zephyrus
Gusts 39 km/h

Hodie
High -- | Low -- °C
--% Chance of Precip.
Yesterday
High -- | Low -- °C
Precip. -- mm
7:45 AM 6:26 PM
Waning Crescent, 4% visible
Pressio 1016 hPa
Visibilitas 16.1 chiliometri
Clouds Nubes Dispersae 274 m
Plerumque Nubila 487 m
Aequaliter Nubila 609 m
Frigus Venti -1 °C
Frigus in quo Ros apparet 1 °C
Umor 87%
Rainfall 4.3 mm
Snow Depth Not available.
UV 1 out of 12
Pollen 2.80 out of 12
Air Quality Not available.
Flu Activity Sporadic
METAR KWYS 211935Z AUTO 20009G21KT 10SM SCT009 BKN016 OVC020 03/01 A2999 RMK AO2

More Conditions Fewer Conditions

Pressio 1016 hPa
Visibilitas 16.1 chiliometri
Clouds Nubes Dispersae 274 m
Plerumque Nubila 487 m
Aequaliter Nubila 609 m
Frigus Venti -1 °C
Frigus in quo Ros apparet 1 °C
Umor 87%
Rainfall 4.3 mm
Snow Depth Not available.
UV 1 out of 12
Pollen 2.80 out of 12
Air Quality Not available.
Flu Activity Sporadic
METAR KWYS 211935Z AUTO 20009G21KT 10SM SCT009 BKN016 OVC020 03/01 A2999 RMK AO2

More Conditions Fewer Conditions

10-Day Weather Forecast

Almanac

Astronomy

Oct. 21, 2014 Rise Set
Actual Time 7:45 AM MDT 6:26 PM MDT
Civil Twilight 7:15 AM MDT 6:56 PM MDT
Nautical Twilight 6:41 AM MDT 7:30 PM MDT
Astronomical Twilight 6:07 AM MDT 8:04 PM MDT
Moon 5:27 AM MDT 5:26 PM MDT
Length Of Visible Light 11h 41m
Length of Day
10h 41m
Tomorrow will be 2m 57s shorter.
Waning Crescent, 4% of the Moon is Illuminated
Hodie
Waning Crescent
Oct 23
New
Oct 30
First Quarter
Nov 6
Full
Nov 14
Last Quarter

Today's Extremes

State Highs State Lows

Community

WunderPhotos

Upload Photos

1,763,754 photos uploaded!

Nearby

Snow Depth

Station Depth Elevation
Sylvan Lake 0 in 8420 ft
Thumb Divide 0 in 7980 ft
Lewis Lake Divide 1 in 7850 ft
Two Ocean Plateau 0 in 9240 ft
Base Camp 0 in 7030 ft

Earthquake Activity

City Distance Mag. Time & Date
No recent earthquake activity has been reported nearby.
Minimum magnitude displayed is 2.5.

Coastal Water Temperatures

Locus Calor
No Stations Reporting

Nearby Weather Stations